9AWPL LDDU-LDDU
Flight info
| Callsign | 9AWPL |
|---|---|
| Flight time | 0h 6m |
| Altitude | 1500 |
| Route | VFR |
| Aircraft | PC12/L-V/N |
Departure
| Time | 2026-04-27 15:31 |
|---|---|
| Airport | Dubrovnik Ruđer Bošković Airport (LDDU) |
Arrival
| Time | 2026-04-27 15:38 |
|---|---|
| Airport | Dubrovnik Ruđer Bošković Airport (LDDU) |
| Time | Latitude | Longitude | Altitude | Speed | Heading |
|---|---|---|---|---|---|
| 2026-04-27 15:23 | 42.55765 | 18.27132 | 518 ft | 0 kts | 209° |
| 2026-04-27 15:28 | 42.55762 | 18.27129 | 518 ft | 4 kts | 207° |
| 2026-04-27 15:28 | 42.55735 | 18.27149 | 517 ft | 12 kts | 84° |
| 2026-04-27 15:28 | 42.55801 | 18.27240 | 518 ft | 13 kts | 119° |
| 2026-04-27 15:28 | 42.55718 | 18.27419 | 515 ft | 33 kts | 112° |
| 2026-04-27 15:29 | 42.55580 | 18.27762 | 509 ft | 49 kts | 121° |
| 2026-04-27 15:29 | 42.55466 | 18.28060 | 505 ft | 27 kts | 105° |
| 2026-04-27 15:29 | 42.55533 | 18.28163 | 505 ft | 20 kts | 30° |
| 2026-04-27 15:29 | 42.55623 | 18.28166 | 505 ft | 0 kts | 288° |
| 2026-04-27 15:30 | 42.55646 | 18.28087 | 507 ft | 35 kts | 293° |
| 2026-04-27 15:30 | 42.55862 | 18.27511 | 536 ft | 94 kts | 296° |
| 2026-04-27 15:30 | 42.56218 | 18.26583 | 700 ft | 138 kts | 298° |
| 2026-04-27 15:31 | 42.56724 | 18.25378 | 786 ft | 146 kts | 299° |
| 2026-04-27 15:31 | 42.57271 | 18.24250 | 896 ft | 134 kts | 305° |
| 2026-04-27 15:31 | 42.57767 | 18.23258 | 1292 ft | 124 kts | 289° |
| 2026-04-27 15:31 | 42.57471 | 18.22207 | 1447 ft | 138 kts | 215° |
| 2026-04-27 15:32 | 42.56619 | 18.21527 | 1515 ft | 147 kts | 214° |
| 2026-04-27 15:32 | 42.55745 | 18.20763 | 1506 ft | 153 kts | 211° |
| 2026-04-27 15:32 | 42.54881 | 18.19960 | 1488 ft | 150 kts | 231° |
| 2026-04-27 15:32 | 42.54278 | 18.18802 | 1486 ft | 153 kts | 220° |
| 2026-04-27 15:33 | 42.53250 | 18.18559 | 1490 ft | 159 kts | 161° |
| 2026-04-27 15:33 | 42.52478 | 18.19586 | 1503 ft | 159 kts | 119° |
| 2026-04-27 15:33 | 42.51951 | 18.20856 | 1508 ft | 153 kts | 119° |
| 2026-04-27 15:33 | 42.51427 | 18.22123 | 1504 ft | 151 kts | 119° |
| 2026-04-27 15:34 | 42.50921 | 18.23353 | 1502 ft | 151 kts | 118° |
| 2026-04-27 15:34 | 42.50411 | 18.24591 | 1506 ft | 151 kts | 118° |
| 2026-04-27 15:34 | 42.49895 | 18.25844 | 1496 ft | 148 kts | 119° |
| 2026-04-27 15:34 | 42.49392 | 18.27067 | 1495 ft | 150 kts | 118° |
| 2026-04-27 15:35 | 42.48883 | 18.28295 | 1498 ft | 153 kts | 118° |
| 2026-04-27 15:35 | 42.48765 | 18.29659 | 1491 ft | 148 kts | 63° |
| 2026-04-27 15:35 | 42.49511 | 18.30545 | 1509 ft | 144 kts | 27° |
| 2026-04-27 15:35 | 42.50378 | 18.31258 | 1514 ft | 145 kts | 29° |
| 2026-04-27 15:36 | 42.51222 | 18.31967 | 1503 ft | 136 kts | 30° |
| 2026-04-27 15:36 | 42.51976 | 18.32597 | 1491 ft | 127 kts | 28° |
| 2026-04-27 15:36 | 42.52731 | 18.33230 | 1493 ft | 126 kts | 24° |
| 2026-04-27 15:36 | 42.53500 | 18.33060 | 1470 ft | 115 kts | 306° |
| 2026-04-27 15:37 | 42.53911 | 18.32110 | 1442 ft | 124 kts | 304° |
| 2026-04-27 15:37 | 42.54357 | 18.31256 | 1304 ft | 105 kts | 304° |
| 2026-04-27 15:37 | 42.54732 | 18.30474 | 977 ft | 89 kts | 299° |
| 2026-04-27 15:37 | 42.54993 | 18.29735 | 718 ft | 82 kts | 294° |
| 2026-04-27 15:38 | 42.55247 | 18.29101 | 601 ft | 71 kts | 297° |
| 2026-04-27 15:38 | 42.55437 | 18.28554 | 494 ft | 0 kts | 308° |
| 2026-04-27 15:38 | 42.55652 | 18.27988 | 583 ft | 103 kts | 299° |
| 2026-04-27 15:38 | 42.55975 | 18.27214 | 522 ft | 80 kts | 298° |
| 2026-04-27 15:39 | 42.56221 | 18.26590 | 740 ft | 75 kts | 295° |
| 2026-04-27 15:39 | 42.56412 | 18.25934 | 1157 ft | 84 kts | 292° |
| 2026-04-27 15:39 | 42.56706 | 18.24997 | 1258 ft | 132 kts | 295° |
| 2026-04-27 15:39 | 42.57168 | 18.23859 | 1711 ft | 142 kts | 296° |
| 2026-04-27 15:40 | 42.56905 | 18.22664 | 2152 ft | 156 kts | 210° |
| 2026-04-27 15:40 | 42.55923 | 18.22294 | 2379 ft | 149 kts | 202° |
| 2026-04-27 15:40 | 42.54924 | 18.22396 | 2215 ft | 144 kts | 145° |
| 2026-04-27 15:40 | 42.54346 | 18.23521 | 2087 ft | 146 kts | 118° |
| 2026-04-27 15:41 | 42.53862 | 18.24685 | 1966 ft | 142 kts | 119° |
| 2026-04-27 15:41 | 42.53377 | 18.25849 | 1827 ft | 141 kts | 119° |
| 2026-04-27 15:41 | 42.52887 | 18.27020 | 1709 ft | 144 kts | 119° |
| 2026-04-27 15:41 | 42.52401 | 18.28194 | 1579 ft | 141 kts | 119° |
| 2026-04-27 15:42 | 42.51971 | 18.29383 | 1489 ft | 139 kts | 97° |
| 2026-04-27 15:42 | 42.52343 | 18.30494 | 1504 ft | 136 kts | 33° |
| 2026-04-27 15:42 | 42.53116 | 18.31133 | 1590 ft | 124 kts | 28° |
| 2026-04-27 15:42 | 42.53829 | 18.31749 | 1523 ft | 115 kts | 30° |
| 2026-04-27 15:43 | 42.54475 | 18.32124 | 1461 ft | 95 kts | 355° |
| 2026-04-27 15:43 | 42.54887 | 18.31544 | 1416 ft | 91 kts | 279° |
| 2026-04-27 15:43 | 42.54913 | 18.30642 | 1167 ft | 95 kts | 277° |
| 2026-04-27 15:43 | 42.55076 | 18.29822 | 848 ft | 87 kts | 291° |
| 2026-04-27 15:44 | 42.55298 | 18.29112 | 684 ft | 79 kts | 296° |
| 2026-04-27 15:44 | 42.55450 | 18.28672 | 584 ft | 74 kts | 295° |
| 2026-04-27 15:44 | 42.55740 | 18.27841 | 524 ft | 76 kts | 296° |
| 2026-04-27 15:44 | 42.55993 | 18.27193 | 524 ft | 80 kts | 298° |
| 2026-04-27 15:45 | 42.56172 | 18.26753 | 601 ft | 73 kts | 297° |
| 2026-04-27 15:45 | 42.56402 | 18.26173 | 729 ft | 70 kts | 300° |
| 2026-04-27 15:45 | 42.56652 | 18.25598 | 835 ft | 71 kts | 300° |
| 2026-04-27 15:45 | 42.56906 | 18.25007 | 960 ft | 80 kts | 299° |
| 2026-04-27 15:46 | 42.57209 | 18.24299 | 1349 ft | 91 kts | 300° |
| 2026-04-27 15:46 | 42.57560 | 18.23381 | 1515 ft | 142 kts | 284° |
| 2026-04-27 15:46 | 42.57281 | 18.22053 | 1498 ft | 149 kts | 226° |
| 2026-04-27 15:46 | 42.56333 | 18.21800 | 1498 ft | 147 kts | 159° |
| 2026-04-27 15:47 | 42.55676 | 18.22805 | 1489 ft | 145 kts | 117° |
| 2026-04-27 15:47 | 42.55199 | 18.23962 | 1502 ft | 139 kts | 119° |
| 2026-04-27 15:47 | 42.54709 | 18.25130 | 1507 ft | 146 kts | 118° |
| 2026-04-27 15:47 | 42.54221 | 18.26295 | 1506 ft | 138 kts | 119° |
| 2026-04-27 15:48 | 42.53747 | 18.27444 | 1511 ft | 144 kts | 118° |
| 2026-04-27 15:48 | 42.53255 | 18.28614 | 1504 ft | 140 kts | 119° |
| 2026-04-27 15:48 | 42.52780 | 18.29779 | 1500 ft | 143 kts | 118° |
| 2026-04-27 15:49 | 42.53149 | 18.31905 | 1509 ft | 136 kts | 27° |
| 2026-04-27 15:49 | 42.53926 | 18.32542 | 1490 ft | 115 kts | 29° |
| 2026-04-27 15:49 | 42.54594 | 18.32400 | 1177 ft | 93 kts | 302° |
| 2026-04-27 15:49 | 42.54671 | 18.31595 | 880 ft | 87 kts | 274° |
| 2026-04-27 15:50 | 42.54725 | 18.30809 | 743 ft | 80 kts | 285° |
| 2026-04-27 15:50 | 42.54909 | 18.30103 | 743 ft | 82 kts | 292° |
| 2026-04-27 15:50 | 42.55148 | 18.29340 | 747 ft | 94 kts | 299° |
| 2026-04-27 15:50 | 42.55445 | 18.28584 | 580 ft | 84 kts | 296° |
| 2026-04-27 15:51 | 42.55680 | 18.27972 | 508 ft | 55 kts | 298° |
| 2026-04-27 15:51 | 42.55803 | 18.27667 | 513 ft | 24 kts | 298° |
| 2026-04-27 15:51 | 42.55857 | 18.27529 | 515 ft | 24 kts | 298° |
| 2026-04-27 15:51 | 42.55840 | 18.27338 | 518 ft | 29 kts | 184° |
| 2026-04-27 15:52 | 42.55794 | 18.27331 | 517 ft | 0 kts | 218° |
| 2026-04-27 15:53 | 42.55774 | 18.27297 | 517 ft | 15 kts | 250° |
| 2026-04-27 15:53 | 42.55799 | 18.27134 | 519 ft | 17 kts | 194° |
| 2026-04-27 15:53 | 42.55747 | 18.27122 | 518 ft | 0 kts | 205° |